createdAt,value
2023-01-09T00:00:54.418Z,98284.06
2023-01-09T00:01:59.009Z,98291.88
2023-01-09T00:03:05.784Z,98295.44
2023-01-09T00:04:13.770Z,98285.75
2023-01-09T00:05:20.140Z,98293.66
2023-01-09T00:06:24.514Z,98288.38
2023-01-09T00:07:28.243Z,98294.59
2023-01-09T00:08:35.598Z,98283.22
2023-01-09T00:09:46.409Z,98286.81
2023-01-09T00:10:50.972Z,98286.88
2023-01-09T00:12:00.441Z,98291.19
2023-01-09T00:13:04.310Z,98281.72
2023-01-09T00:14:13.831Z,98277.69
2023-01-09T00:15:18.370Z,98282.13
2023-01-09T00:16:26.500Z,98282.22
2023-01-09T00:17:30.756Z,98285.69
2023-01-09T00:18:35.972Z,98289.19
2023-01-09T00:19:40.117Z,98271.69
2023-01-09T00:20:44.262Z,98284.00
2023-01-09T00:21:48.613Z,98277.25
2023-01-09T00:22:52.337Z,98282.63
2023-01-09T00:24:01.465Z,98268.78
2023-01-09T00:25:10.413Z,98268.91
2023-01-09T00:26:24.586Z,98279.44
2023-01-09T00:27:36.390Z,98275.28
2023-01-09T00:28:41.052Z,98277.09
2023-01-09T00:29:47.818Z,98272.75
2023-01-09T00:31:01.412Z,98271.25
2023-01-09T00:32:10.187Z,98274.84
2023-01-09T00:33:21.507Z,98271.47
2023-01-09T00:34:26.355Z,98262.63
2023-01-09T00:35:30.916Z,98269.69
2023-01-09T00:36:35.459Z,98264.59
2023-01-09T00:37:39.198Z,98274.22
2023-01-09T00:38:43.115Z,98275.06
2023-01-09T00:39:48.191Z,98273.44
2023-01-09T00:40:52.742Z,98263.84
2023-01-09T00:41:59.255Z,98271.03
2023-01-09T00:43:03.051Z,98268.78
2023-01-09T00:44:26.323Z,98277.41
2023-01-09T00:45:31.277Z,98272.16
2023-01-09T00:46:40.331Z,98271.19
2023-01-09T00:47:52.797Z,98273.84
2023-01-09T00:49:20.145Z,98267.81
2023-01-09T00:50:32.265Z,98276.69
2023-01-09T00:51:37.229Z,98268.88
2023-01-09T00:52:42.292Z,98272.34
2023-01-09T00:53:49.157Z,98269.81
2023-01-09T00:54:56.018Z,98269.91
2023-01-09T00:56:08.249Z,98264.63
2023-01-09T00:57:14.779Z,98267.28
2023-01-09T00:58:19.939Z,98272.63
2023-01-09T00:59:24.310Z,98279.91
2023-01-09T01:00:28.016Z,98276.44
2023-01-09T01:01:32.450Z,98272.94
2023-01-09T01:02:40.763Z,98266.84
2023-01-09T01:03:56.965Z,98267.03
2023-01-09T01:05:19.395Z,98265.22
2023-01-09T01:06:45.362Z,98260.06
2023-01-09T01:08:03.868Z,98259.34
2023-01-09T01:09:12.511Z,98263.75
2023-01-09T01:10:24.190Z,98260.28
2023-01-09T01:11:43.855Z,98260.34
2023-01-09T01:12:57.889Z,98258.22
2023-01-09T01:14:02.040Z,98259.06
2023-01-09T01:15:09.139Z,98258.09
2023-01-09T01:16:14.675Z,98253.50
2023-01-09T01:17:23.514Z,98260.56
2023-01-09T01:18:42.672Z,98263.19
2023-01-09T01:20:06.386Z,98256.16
2023-01-09T01:21:17.888Z,98251.94
2023-01-09T01:22:47.872Z,98259.81
2023-01-09T01:24:00.853Z,98251.16
2023-01-09T01:25:17.850Z,98251.16
2023-01-09T01:26:21.476Z,98250.41
2023-01-09T01:27:25.288Z,98244.22
2023-01-09T01:28:29.674Z,98241.59
2023-01-09T01:29:33.435Z,98241.69
2023-01-09T01:30:42.285Z,98243.47
2023-01-09T01:31:46.082Z,98242.53
2023-01-09T01:32:49.725Z,98236.53
2023-01-09T01:33:53.517Z,98226.19
2023-01-09T01:34:57.410Z,98226.38
2023-01-09T01:36:10.480Z,98231.44
2023-01-09T01:37:16.301Z,98240.28
2023-01-09T01:38:31.819Z,98227.13
2023-01-09T01:39:35.582Z,98225.34
2023-01-09T01:40:55.215Z,98231.44
2023-01-09T01:41:59.682Z,98229.00
2023-01-09T01:43:13.918Z,98234.47
2023-01-09T01:45:16.392Z,98229.28
2023-01-09T01:46:21.320Z,98232.88
2023-01-09T01:48:09.162Z,98225.81
2023-01-09T01:49:20.713Z,98225.09
2023-01-09T01:50:54.166Z,98222.44
2023-01-09T01:52:02.259Z,98220.75
2023-01-09T01:53:43.583Z,98224.34
2023-01-09T01:54:49.830Z,98221.50
2023-01-09T01:56:35.676Z,98214.56
2023-01-09T01:57:58.299Z,98227.16
2023-01-09T01:59:15.053Z,98213.88
2023-01-09T02:00:27.441Z,98213.88
2023-01-09T02:01:34.172Z,98207.78
2023-01-09T02:02:43.805Z,98204.25
2023-01-09T02:03:49.044Z,98211.19
2023-01-09T02:04:56.345Z,98205.94
2023-01-09T02:06:00.752Z,98206.00
2023-01-09T02:07:10.551Z,98219.16
2023-01-09T02:08:14.582Z,98217.41
2023-01-09T02:09:22.926Z,98224.34
2023-01-09T02:10:30.524Z,98220.88
2023-01-09T02:11:34.717Z,98213.88
2023-01-09T02:12:38.713Z,98203.47
2023-01-09T02:13:43.212Z,98211.47
2023-01-09T02:14:49.301Z,98206.09
2023-01-09T02:16:14.658Z,98201.63
2023-01-09T02:18:03.300Z,98203.38
2023-01-09T02:20:13.973Z,98198.03
2023-01-09T02:21:48.990Z,98201.50
2023-01-09T02:23:29.509Z,98204.03
2023-01-09T02:25:22.969Z,98215.31
2023-01-09T02:27:20.760Z,98200.47
2023-01-09T02:29:17.938Z,98204.16
2023-01-09T02:30:40.277Z,98202.34
2023-01-09T02:32:18.290Z,98204.03
2023-01-09T02:33:57.436Z,98203.19
2023-01-09T02:35:29.629Z,98204.88
2023-01-09T02:37:01.927Z,98198.78
2023-01-09T02:39:03.473Z,98194.47
2023-01-09T02:40:18.371Z,98204.25
2023-01-09T02:41:41.269Z,98209.50
2023-01-09T02:42:47.709Z,98207.25
2023-01-09T02:44:12.287Z,98203.84
2023-01-09T02:45:16.576Z,98197.69
2023-01-09T02:46:23.248Z,98199.38
2023-01-09T02:47:30.265Z,98197.47
2023-01-09T02:48:34.302Z,98191.28
2023-01-09T02:49:40.308Z,98192.94
2023-01-09T02:51:35.626Z,98194.75
2023-01-09T02:53:01.369Z,98193.78
2023-01-09T02:54:44.922Z,98181.69
2023-01-09T02:56:30.255Z,98189.38
2023-01-09T02:58:17.505Z,98199.38
2023-01-09T03:00:23.727Z,98201.22
2023-01-09T03:01:52.650Z,98208.19
2023-01-09T03:03:23.043Z,98199.28
2023-01-09T03:04:58.381Z,98213.19
2023-01-09T03:06:36.906Z,98219.16
2023-01-09T03:08:03.624Z,98209.59
2023-01-09T03:09:25.328Z,98223.78
2023-01-09T03:11:01.405Z,98225.47
2023-01-09T03:12:15.176Z,98230.75
2023-01-09T03:13:24.802Z,98222.22
2023-01-09T03:14:34.103Z,98226.53
2023-01-09T03:15:44.749Z,98218.81
2023-01-09T03:17:00.404Z,98216.19
2023-01-09T03:18:08.961Z,98210.75
2023-01-09T03:19:21.165Z,98207.91
2023-01-09T03:20:30.267Z,98203.50
2023-01-09T03:21:34.996Z,98203.69
2023-01-09T03:22:46.451Z,98201.81
2023-01-09T03:23:57.490Z,98195.06
2023-01-09T03:25:01.070Z,98195.06
2023-01-09T03:26:05.442Z,98202.75
2023-01-09T03:27:09.984Z,98207.91
2023-01-09T03:28:29.686Z,98211.88
2023-01-09T03:29:33.513Z,98207.06
2023-01-09T03:30:37.880Z,98196.56
2023-01-09T03:31:41.659Z,98190.66
2023-01-09T03:32:45.783Z,98198.25
2023-01-09T03:33:50.034Z,98196.66
2023-01-09T03:34:53.986Z,98203.50
2023-01-09T03:35:57.747Z,98202.75
2023-01-09T03:37:02.056Z,98204.44
2023-01-09T03:38:07.312Z,98189.81
2023-01-09T03:39:12.149Z,98194.13
2023-01-09T03:40:16.676Z,98188.09
2023-01-09T03:41:20.642Z,98182.00
2023-01-09T03:42:25.920Z,98186.53
2023-01-09T03:43:30.728Z,98187.25
2023-01-09T03:44:35.589Z,98188.09
2023-01-09T03:45:39.691Z,98178.00
2023-01-09T03:46:45.071Z,98177.03
2023-01-09T03:47:52.291Z,98176.00
2023-01-09T03:48:57.103Z,98172.31
2023-01-09T03:50:01.335Z,98178.41
2023-01-09T03:51:04.933Z,98174.88
2023-01-09T03:52:11.522Z,98181.81
2023-01-09T03:53:15.812Z,98174.78
2023-01-09T03:54:20.179Z,98172.03
2023-01-09T03:55:23.953Z,98158.16
2023-01-09T03:56:27.647Z,98157.38
2023-01-09T03:57:31.591Z,98167.72
2023-01-09T03:58:35.471Z,98157.22
2023-01-09T03:59:40.267Z,98158.34
2023-01-09T04:00:46.227Z,98148.47
2023-01-09T04:01:50.510Z,98156.38
2023-01-09T04:02:54.870Z,98146.13
2023-01-09T04:03:58.777Z,98143.31
2023-01-09T04:05:02.889Z,98140.59
2023-01-09T04:06:09.798Z,98137.22
2023-01-09T04:07:13.894Z,98139.75
2023-01-09T04:08:19.847Z,98137.13
2023-01-09T04:09:23.512Z,98130.47
2023-01-09T04:10:27.313Z,98133.81
2023-01-09T04:11:31.810Z,98139.84
2023-01-09T04:12:35.675Z,98133.72
2023-01-09T04:13:40.048Z,98131.19
2023-01-09T04:14:44.158Z,98129.50
2023-01-09T04:15:47.937Z,98127.63
2023-01-09T04:16:51.602Z,98121.44
2023-01-09T04:17:55.531Z,98119.94
2023-01-09T04:18:59.538Z,98115.41
2023-01-09T04:20:04.795Z,98117.09
2023-01-09T04:21:11.912Z,98112.78
2023-01-09T04:22:16.948Z,98112.78
2023-01-09T04:23:21.341Z,98127.19
2023-01-09T04:24:25.357Z,98121.94
2023-01-09T04:25:29.993Z,98115.81
2023-01-09T04:26:34.008Z,98112.34
2023-01-09T04:27:38.147Z,98113.94
2023-01-09T04:28:42.243Z,98114.13
2023-01-09T04:29:46.375Z,98120.22
2023-01-09T04:30:50.708Z,98124.63
2023-01-09T04:31:55.707Z,98122.84
2023-01-09T04:33:00.172Z,98124.94
2023-01-09T04:34:04.157Z,98125.97
2023-01-09T04:35:11.627Z,98124.75
2023-01-09T04:36:15.988Z,98124.75
2023-01-09T04:37:21.121Z,98122.03
2023-01-09T04:38:25.024Z,98120.19
2023-01-09T04:39:29.101Z,98121.84
2023-01-09T04:40:32.921Z,98114.81
2023-01-09T04:41:51.963Z,98107.94
2023-01-09T04:42:55.858Z,98111.44
2023-01-09T04:43:59.953Z,98104.88
2023-01-09T04:45:05.642Z,98110.03
2023-01-09T04:46:09.683Z,98116.13
2023-01-09T04:47:13.866Z,98110.03
2023-01-09T04:48:18.963Z,98108.06
2023-01-09T04:49:23.682Z,98101.00
2023-01-09T04:50:27.389Z,98101.09
2023-01-09T04:51:31.571Z,98104.69
2023-01-09T04:52:37.038Z,98104.47
2023-01-09T04:53:41.958Z,98097.44
2023-01-09T04:54:45.935Z,98099.44
2023-01-09T04:55:51.174Z,98109.09
2023-01-09T04:56:55.193Z,98098.59
2023-01-09T04:58:01.605Z,98099.53
2023-01-09T04:59:07.820Z,98099.53
2023-01-09T05:00:12.514Z,98100.28
2023-01-09T05:01:16.469Z,98087.59
2023-01-09T05:02:20.471Z,98100.84
2023-01-09T05:03:24.253Z,98094.66
2023-01-09T05:04:28.223Z,98086.88
2023-01-09T05:05:32.116Z,98085.81
2023-01-09T05:06:36.272Z,98090.88
2023-01-09T05:07:40.728Z,98080.47
2023-01-09T05:08:44.842Z,98080.34
2023-01-09T05:09:48.971Z,98082.91
2023-01-09T05:10:52.601Z,98090.81
2023-01-09T05:11:56.792Z,98093.50
2023-01-09T05:13:01.229Z,98091.75
2023-01-09T05:14:04.809Z,98088.25
2023-01-09T05:15:09.923Z,98085.63
2023-01-09T05:16:13.939Z,98078.59
2023-01-09T05:17:18.036Z,98085.44
2023-01-09T05:18:21.763Z,98094.06
2023-01-09T05:19:25.768Z,98081.75
2023-01-09T05:20:29.807Z,98078.41
2023-01-09T05:21:34.499Z,98074.72
2023-01-09T05:22:38.497Z,98078.19
2023-01-09T05:23:42.272Z,98081.66
2023-01-09T05:24:46.233Z,98083.28
2023-01-09T05:25:49.827Z,98089.47
2023-01-09T05:26:53.949Z,98077.16
2023-01-09T05:27:58.247Z,98087.47
2023-01-09T05:29:02.082Z,98083.06
2023-01-09T05:30:06.906Z,98079.59
2023-01-09T05:31:11.139Z,98080.53
2023-01-09T05:32:15.825Z,98084.75
2023-01-09T05:33:20.078Z,98084.84
2023-01-09T05:34:25.333Z,98087.47
2023-01-09T05:35:29.530Z,98089.94
2023-01-09T05:36:33.853Z,98085.59
2023-01-09T05:37:37.666Z,98079.41
2023-01-09T05:38:42.343Z,98078.47
2023-01-09T05:39:46.142Z,98075.84
2023-01-09T05:40:50.148Z,98081.84
2023-01-09T05:41:54.283Z,98084.47
2023-01-09T05:42:58.479Z,98085.19
2023-01-09T05:44:02.735Z,98081.63
2023-01-09T05:45:09.753Z,98079.75
2023-01-09T05:46:14.571Z,98077.13
2023-01-09T05:47:18.498Z,98077.88
2023-01-09T05:48:22.276Z,98086.50
2023-01-09T05:49:26.236Z,98072.41
2023-01-09T05:50:29.948Z,98074.13
2023-01-09T05:51:34.376Z,98075.69
2023-01-09T05:52:38.653Z,98079.38
2023-01-09T05:53:42.237Z,98074.63
2023-01-09T05:54:46.967Z,98064.88
2023-01-09T05:55:51.280Z,98067.31
2023-01-09T05:56:55.022Z,98064.69
2023-01-09T05:57:58.656Z,98068.25
2023-01-09T05:59:02.486Z,98065.63
2023-01-09T06:00:07.107Z,98064.56
2023-01-09T06:01:11.222Z,98061.84
2023-01-09T06:02:15.085Z,98066.06
2023-01-09T06:03:19.497Z,98057.22
2023-01-09T06:04:23.212Z,98065.75
2023-01-09T06:05:27.275Z,98062.19
2023-01-09T06:06:31.117Z,98074.31
2023-01-09T06:07:39.450Z,98056.94
2023-01-09T06:08:43.318Z,98062.19
2023-01-09T06:09:47.796Z,98068.19
2023-01-09T06:10:51.687Z,98060.31
2023-01-09T06:11:55.685Z,98066.19
2023-01-09T06:13:01.990Z,98066.13
2023-01-09T06:14:06.813Z,98061.59
2023-01-09T06:15:11.418Z,98058.31
2023-01-09T06:16:15.378Z,98058.22
2023-01-09T06:17:19.365Z,98048.53
2023-01-09T06:18:23.224Z,98055.38
2023-01-09T06:19:27.017Z,98049.47
2023-01-09T06:20:31.534Z,98054.53
2023-01-09T06:21:35.355Z,98044.84
2023-01-09T06:22:39.209Z,98049.06
2023-01-09T06:23:43.962Z,98053.38
2023-01-09T06:24:47.715Z,98053.59
2023-01-09T06:25:51.285Z,98051.06
2023-01-09T06:26:55.065Z,98049.16
2023-01-09T06:27:58.943Z,98051.81
2023-01-09T06:29:02.657Z,98051.69
2023-01-09T06:30:07.756Z,98050.66
2023-01-09T06:31:11.677Z,98048.88
2023-01-09T06:32:19.419Z,98050.44
2023-01-09T06:33:29.437Z,98051.19
2023-01-09T06:34:33.229Z,98046.13
2023-01-09T06:35:37.096Z,98048.78
2023-01-09T06:36:40.887Z,98038.25
2023-01-09T06:37:44.950Z,98043.50
2023-01-09T06:38:48.957Z,98039.31
2023-01-09T06:39:54.501Z,98047.28
2023-01-09T06:40:58.189Z,98045.47
2023-01-09T06:42:02.047Z,98039.31
2023-01-09T06:43:05.863Z,98039.94
2023-01-09T06:44:09.507Z,98040.75
2023-01-09T06:45:14.889Z,98044.91
2023-01-09T06:46:18.876Z,98045.91
2023-01-09T06:47:22.789Z,98043.09
2023-01-09T06:48:27.013Z,98033.31
2023-01-09T06:49:31.123Z,98042.16
2023-01-09T06:50:35.193Z,98037.63
2023-01-09T06:51:39.210Z,98041.94
2023-01-09T06:52:44.964Z,98033.84
2023-01-09T06:53:48.928Z,98039.13
2023-01-09T06:54:53.781Z,98026.91
2023-01-09T06:56:03.176Z,98034.03
2023-01-09T06:57:08.321Z,98027.00
2023-01-09T06:58:12.938Z,98027.00
2023-01-09T06:59:17.750Z,98033.75
2023-01-09T07:00:23.116Z,98020.88
2023-01-09T07:01:29.019Z,98025.13
2023-01-09T07:02:34.143Z,98033.00
2023-01-09T07:03:39.465Z,98028.78
2023-01-09T07:04:44.344Z,98027.94
2023-01-09T07:05:50.433Z,98028.59
2023-01-09T07:06:54.733Z,98030.28
2023-01-09T07:07:59.084Z,98024.78
2023-01-09T07:09:03.254Z,98027.34
2023-01-09T07:10:09.726Z,98025.53
2023-01-09T07:11:13.749Z,98026.38
2023-01-09T07:12:19.189Z,98021.84
2023-01-09T07:13:23.578Z,98019.13
2023-01-09T07:14:28.074Z,98018.94
2023-01-09T07:15:32.261Z,98017.75
2023-01-09T07:16:36.223Z,98022.91
2023-01-09T07:17:40.035Z,98019.53
2023-01-09T07:18:44.013Z,98031.44
2023-01-09T07:19:47.719Z,98027.88
2023-01-09T07:20:51.954Z,98030.28
2023-01-09T07:21:56.163Z,98027.75
2023-01-09T07:23:00.255Z,98037.25
2023-01-09T07:24:04.070Z,98035.25
2023-01-09T07:25:08.175Z,98033.25
2023-01-09T07:26:13.865Z,98035.66
2023-01-09T07:27:17.870Z,98032.06
2023-01-09T07:28:21.607Z,98029.25
2023-01-09T07:29:25.561Z,98032.72
2023-01-09T07:30:29.357Z,98034.53
2023-01-09T07:31:33.734Z,98035.34
2023-01-09T07:32:38.710Z,98045.78
2023-01-09T07:33:43.201Z,98035.25
2023-01-09T07:34:54.328Z,98035.06
2023-01-09T07:35:58.113Z,98035.06
2023-01-09T07:37:02.019Z,98037.69
2023-01-09T07:38:06.016Z,98034.28
2023-01-09T07:39:10.132Z,98035.91
2023-01-09T07:40:14.327Z,98037.56
2023-01-09T07:41:18.590Z,98035.78
2023-01-09T07:42:23.313Z,98033.91
2023-01-09T07:43:27.610Z,98033.25
2023-01-09T07:44:44.413Z,98027.34
2023-01-09T07:45:48.444Z,98033.38
2023-01-09T07:46:52.389Z,98033.16
2023-01-09T07:47:56.392Z,98039.28
2023-01-09T07:49:00.513Z,98035.59
2023-01-09T07:50:05.481Z,98030.09
2023-01-09T07:51:10.602Z,98035.34
2023-01-09T07:52:15.041Z,98030.63
2023-01-09T07:53:19.167Z,98027.88
2023-01-09T07:54:23.080Z,98034.81
2023-01-09T07:55:27.154Z,98033.03
2023-01-09T07:56:31.284Z,98030.31
2023-01-09T07:57:35.438Z,98041.69
2023-01-09T07:58:41.099Z,98030.94
2023-01-09T07:59:45.638Z,98033.44
2023-01-09T08:00:57.294Z,98031.47
2023-01-09T08:02:05.772Z,98031.56
2023-01-09T08:03:09.458Z,98021.75
2023-01-09T08:04:13.590Z,98030.50
2023-01-09T08:05:20.218Z,98020.81
2023-01-09T08:06:24.915Z,98024.28
2023-01-09T08:07:28.751Z,98028.47
2023-01-09T08:08:32.604Z,98023.97
2023-01-09T08:09:36.796Z,98025.66
2023-01-09T08:10:40.840Z,98024.56
2023-01-09T08:11:44.705Z,98017.63
2023-01-09T08:12:50.076Z,98026.25
2023-01-09T08:13:54.195Z,98022.69
2023-01-09T08:14:58.052Z,98025.09
2023-01-09T08:16:02.126Z,98016.34
2023-01-09T08:17:12.151Z,98018.03
2023-01-09T08:18:16.167Z,98014.44
2023-01-09T08:19:20.385Z,98006.41
2023-01-09T08:20:24.331Z,98010.84
2023-01-09T08:21:28.161Z,98009.19
2023-01-09T08:22:32.207Z,98010.84
2023-01-09T08:23:36.116Z,98015.28
2023-01-09T08:24:39.768Z,98016.97
2023-01-09T08:25:43.440Z,98008.03
2023-01-09T08:26:47.177Z,98010.53
2023-01-09T08:27:51.278Z,98006.81
2023-01-09T08:28:55.960Z,98009.25
2023-01-09T08:29:59.790Z,98003.88
2023-01-09T08:31:06.559Z,98004.72
2023-01-09T08:32:10.482Z,98005.56
2023-01-09T08:33:14.887Z,98003.66
2023-01-09T08:34:19.819Z,98004.59
2023-01-09T08:35:23.706Z,98005.34
2023-01-09T08:36:27.868Z,98009.38
2023-01-09T08:37:31.778Z,98006.22
2023-01-09T08:38:36.319Z,98002.75
2023-01-09T08:39:40.588Z,97998.31
2023-01-09T08:40:47.422Z,98001.69
2023-01-09T08:42:10.021Z,97999.03
2023-01-09T08:43:33.059Z,97999.75
2023-01-09T08:44:55.736Z,98000.53
2023-01-09T08:46:19.753Z,98002.19
2023-01-09T08:47:25.018Z,98007.25
2023-01-09T08:48:28.826Z,98003.66
2023-01-09T08:49:38.880Z,98006.06
2023-01-09T08:50:43.862Z,97993.63
2023-01-09T08:51:47.872Z,98004.47
2023-01-09T08:52:51.955Z,98011.13
2023-01-09T08:53:57.415Z,98013.63
2023-01-09T08:55:01.460Z,98012.47
2023-01-09T08:56:05.948Z,98008.69
2023-01-09T08:57:10.148Z,98006.88
2023-01-09T08:58:14.413Z,98010.13
2023-01-09T08:59:19.937Z,98012.63
2023-01-09T09:00:25.898Z,98010.13
2023-01-09T09:01:31.566Z,98013.41
2023-01-09T09:02:35.661Z,98006.66
2023-01-09T09:03:40.983Z,98012.75
2023-01-09T09:04:46.567Z,98005.09
2023-01-09T09:05:50.911Z,98008.84
2023-01-09T09:06:55.585Z,98011.34
2023-01-09T09:08:00.273Z,98003.13
2023-01-09T09:09:05.290Z,98007.19
2023-01-09T09:10:20.428Z,98009.84
2023-01-09T09:11:30.654Z,97999.16
2023-01-09T09:12:36.039Z,98002.19
2023-01-09T09:13:40.069Z,97995.03
2023-01-09T09:15:03.641Z,98001.75
2023-01-09T09:16:09.086Z,97993.38
2023-01-09T09:17:13.055Z,97999.38
2023-01-09T09:18:16.827Z,97994.50
2023-01-09T09:19:21.617Z,98003.63
2023-01-09T09:20:30.420Z,98003.28
2023-01-09T09:21:34.038Z,97996.81
2023-01-09T09:22:38.126Z,97999.97
2023-01-09T09:23:42.148Z,98001.19
2023-01-09T09:24:45.861Z,97996.41
2023-01-09T09:25:49.676Z,97996.91
2023-01-09T09:26:53.662Z,98003.50
2023-01-09T09:27:58.526Z,97990.78
2023-01-09T09:29:02.589Z,97988.84
2023-01-09T09:30:07.982Z,97991.75
2023-01-09T09:31:12.553Z,97989.47
2023-01-09T09:32:16.453Z,97988.03
2023-01-09T09:33:20.394Z,97988.28
2023-01-09T09:34:24.143Z,97984.44
2023-01-09T09:35:28.987Z,97982.28
2023-01-09T09:36:32.771Z,97979.53
2023-01-09T09:37:37.512Z,97981.06
2023-01-09T09:38:41.742Z,97991.44
2023-01-09T09:39:45.737Z,97986.00
2023-01-09T09:41:49.315Z,97981.31
2023-01-09T09:43:46.065Z,97983.94
2023-01-09T09:45:34.657Z,97981.22
2023-01-09T09:47:35.238Z,97978.19
2023-01-09T09:49:07.222Z,97975.41
2023-01-09T09:50:23.882Z,97970.88
2023-01-09T09:52:10.552Z,97970.25
2023-01-09T09:53:25.909Z,97963.66
2023-01-09T09:54:48.221Z,97961.84
2023-01-09T09:55:53.178Z,97963.28
2023-01-09T09:57:01.119Z,97965.00
2023-01-09T09:58:40.263Z,97969.31
2023-01-09T09:59:48.439Z,97964.13
2023-01-09T10:00:53.831Z,97958.00
2023-01-09T10:02:09.864Z,97969.06
2023-01-09T10:03:34.093Z,97963.19
2023-01-09T10:04:48.029Z,97973.63
2023-01-09T10:05:54.773Z,97966.31
2023-01-09T10:07:09.864Z,97961.59
2023-01-09T10:08:43.777Z,97961.47
2023-01-09T10:10:02.728Z,97963.06
2023-01-09T10:11:22.878Z,97956.09
2023-01-09T10:12:44.012Z,97958.47
2023-01-09T10:14:13.236Z,97952.34
2023-01-09T10:15:59.673Z,97951.50
2023-01-09T10:17:15.373Z,97952.09
2023-01-09T10:18:58.805Z,97953.53
2023-01-09T10:20:50.261Z,97941.28
2023-01-09T10:22:20.891Z,97938.50
2023-01-09T10:23:58.468Z,97933.78
2023-01-09T10:25:24.070Z,97937.03
2023-01-09T10:26:43.761Z,97933.28
2023-01-09T10:28:00.146Z,97934.03
2023-01-09T10:29:14.203Z,97928.59
2023-01-09T10:30:45.537Z,97926.94
2023-01-09T10:32:39.858Z,97920.41
2023-01-09T10:34:47.245Z,97918.25
2023-01-09T10:36:09.891Z,97910.41
2023-01-09T10:37:53.371Z,97910.16
2023-01-09T10:39:04.423Z,97910.03
2023-01-09T10:40:39.948Z,97909.78
2023-01-09T10:42:13.132Z,97916.50
2023-01-09T10:43:59.401Z,97903.13
2023-01-09T10:45:16.067Z,97909.00
2023-01-09T10:46:43.995Z,97898.16
2023-01-09T10:47:49.937Z,97904.88
2023-01-09T10:49:03.083Z,97904.63
2023-01-09T10:50:34.586Z,97892.94
2023-01-09T10:51:53.372Z,97889.91
2023-01-09T10:52:58.441Z,97883.78
2023-01-09T10:54:04.608Z,97884.38
2023-01-09T10:55:17.975Z,97883.53
2023-01-09T10:56:27.208Z,97878.94
2023-01-09T10:57:54.361Z,97882.03
2023-01-09T10:58:58.881Z,97883.44
2023-01-09T11:00:05.583Z,97875.38
2023-01-09T11:01:10.381Z,97880.41
2023-01-09T11:02:43.770Z,97878.09
2023-01-09T11:03:48.574Z,97873.09
2023-01-09T11:04:53.054Z,97876.19
2023-01-09T11:06:02.484Z,97874.94
2023-01-09T11:07:29.246Z,97882.38
2023-01-09T11:08:44.921Z,97876.56
2023-01-09T11:10:07.528Z,97872.50
2023-01-09T11:11:13.027Z,97866.81
2023-01-09T11:12:34.120Z,97877.03
2023-01-09T11:13:43.760Z,97878.28
2023-01-09T11:14:48.119Z,97878.03
2023-01-09T11:16:09.702Z,97882.81
2023-01-09T11:17:27.080Z,97876.38
2023-01-09T11:18:34.311Z,97871.38
2023-01-09T11:19:38.703Z,97872.78
2023-01-09T11:20:43.071Z,97868.63
2023-01-09T11:21:47.259Z,97868.34
2023-01-09T11:22:57.853Z,97867.38
2023-01-09T11:24:22.311Z,97862.53
2023-01-09T11:25:29.050Z,97856.94
2023-01-09T11:26:35.201Z,97855.28
2023-01-09T11:27:39.313Z,97855.00
2023-01-09T11:28:43.261Z,97855.41
2023-01-09T11:30:43.748Z,97859.19
2023-01-09T11:32:00.071Z,97861.00
2023-01-09T11:33:28.735Z,97859.63
2023-01-09T11:34:37.504Z,97863.66
2023-01-09T11:36:08.019Z,97861.59
2023-01-09T11:37:20.145Z,97863.84
2023-01-09T11:38:24.637Z,97864.53
2023-01-09T11:39:33.624Z,97854.59
2023-01-09T11:41:16.458Z,97847.22
2023-01-09T11:42:45.353Z,97848.03
2023-01-09T11:43:54.670Z,97850.41
2023-01-09T11:45:01.720Z,97842.28
2023-01-09T11:46:11.792Z,97842.44
2023-01-09T11:47:39.669Z,97848.19
2023-01-09T11:48:59.590Z,97844.53
2023-01-09T11:50:23.345Z,97845.09
2023-01-09T11:51:34.367Z,97846.63
2023-01-09T11:52:38.182Z,97847.19
2023-01-09T11:54:20.363Z,97844.13
2023-01-09T11:55:29.347Z,97841.16
2023-01-09T11:56:37.960Z,97846.34
2023-01-09T11:57:42.096Z,97839.91
2023-01-09T11:58:47.617Z,97848.03
2023-01-09T11:59:54.501Z,97846.22
2023-01-09T12:01:18.727Z,97847.03
2023-01-09T12:02:56.532Z,97846.88
2023-01-09T12:04:32.392Z,97845.22
2023-01-09T12:05:58.286Z,97846.63
2023-01-09T12:07:38.728Z,97847.00
2023-01-09T12:09:07.103Z,97848.28
2023-01-09T12:11:32.492Z,97842.53
2023-01-09T12:14:02.440Z,97844.22
2023-01-09T12:15:38.840Z,97846.56
2023-01-09T12:17:11.773Z,97842.91
2023-01-09T12:18:58.124Z,97838.59
2023-01-09T12:20:38.671Z,97840.84
2023-01-09T12:21:50.215Z,97844.34
2023-01-09T12:23:32.368Z,97846.31
2023-01-09T12:25:16.121Z,97839.34
2023-01-09T12:26:36.743Z,97844.09
2023-01-09T12:28:11.117Z,97846.63
2023-01-09T12:30:30.689Z,97850.38
2023-01-09T12:32:12.948Z,97849.13
2023-01-09T12:33:53.207Z,97852.91
2023-01-09T12:35:10.880Z,97848.72
2023-01-09T12:36:41.878Z,97851.50
2023-01-09T12:43:12.889Z,97847.19
2023-01-09T12:44:51.717Z,97845.38
2023-01-09T12:46:30.709Z,97848.88
2023-01-09T12:47:46.198Z,97845.53
2023-01-09T12:49:30.014Z,97843.84
2023-01-09T12:51:11.531Z,97847.59
2023-01-09T12:52:31.389Z,97846.91
2023-01-09T12:53:55.656Z,97850.56
2023-01-09T12:55:19.505Z,97842.75
2023-01-09T12:56:37.418Z,97834.94
2023-01-09T12:57:49.693Z,97840.09
2023-01-09T12:59:17.206Z,97842.75
2023-01-09T13:00:43.611Z,97832.13
2023-01-09T13:01:50.423Z,97835.63
2023-01-09T13:03:20.483Z,97834.78
2023-01-09T13:04:36.793Z,97835.75
2023-01-09T13:05:57.707Z,97833.09
2023-01-09T13:07:19.055Z,97836.72
2023-01-09T13:08:52.882Z,97842.88
2023-01-09T13:10:22.996Z,97840.22
2023-01-09T13:11:41.279Z,97842.75
2023-01-09T13:12:48.623Z,97832.97
2023-01-09T13:14:14.224Z,97846.09
2023-01-09T13:15:39.977Z,97841.59
2023-01-09T13:16:59.527Z,97831.97
2023-01-09T13:18:37.138Z,97835.47
2023-01-09T13:19:51.014Z,97838.81
2023-01-09T13:21:02.338Z,97832.81
2023-01-09T13:22:14.755Z,97832.66
2023-01-09T13:23:41.975Z,97837.13
2023-01-09T13:25:19.831Z,97838.81
2023-01-09T13:26:29.987Z,97844.13
2023-01-09T13:27:41.190Z,97845.78
2023-01-09T13:28:54.813Z,97831.84
2023-01-09T13:30:19.877Z,97836.31
2023-01-09T13:32:00.428Z,97833.94
2023-01-09T13:33:38.811Z,97836.72
2023-01-09T13:34:48.258Z,97842.75
2023-01-09T13:36:10.053Z,97828.75
2023-01-09T13:37:39.782Z,97839.38
2023-01-09T13:38:50.086Z,97834.34
2023-01-09T13:40:08.046Z,97838.81
2023-01-09T13:41:38.700Z,97837.31
2023-01-09T13:42:49.080Z,97841.63
2023-01-09T13:44:02.445Z,97845.25
2023-01-09T13:45:25.459Z,97839.13
2023-01-09T13:46:59.462Z,97842.72
2023-01-09T13:48:18.465Z,97846.09
2023-01-09T13:50:01.442Z,97850.56
2023-01-09T13:51:43.107Z,97857.69
2023-01-09T13:52:49.729Z,97863.00
2023-01-09T13:53:53.901Z,97860.34
2023-01-09T13:55:02.827Z,97861.19
2023-01-09T13:56:11.639Z,97869.13
2023-01-09T13:57:18.221Z,97869.13
2023-01-09T13:58:30.095Z,97873.59
2023-01-09T13:59:34.110Z,97879.03
2023-01-09T14:00:38.698Z,97876.38
2023-01-09T14:01:44.390Z,97882.50
2023-01-09T14:02:49.596Z,97883.50
2023-01-09T14:04:22.959Z,97888.81
2023-01-09T14:05:46.980Z,97887.97
2023-01-09T14:07:23.900Z,97888.25
2023-01-09T14:08:31.596Z,97891.88
2023-01-09T14:09:38.822Z,97897.19
2023-01-09T14:10:52.526Z,97892.84
2023-01-09T14:12:07.357Z,97893.69
2023-01-09T14:13:19.738Z,97898.28
2023-01-09T14:14:34.160Z,97894.94
2023-01-09T14:15:45.990Z,97897.59